African Highway — 3EOD8 — position and weather

sailwx.info

Track history (hours):
 
Tides and Currents Weather Stations Pressure Air Temp Water Temp Dewpoint Dewpoint Depression Visibility Wind Speed Wind Dir Waves Ship Positions

African Highway

Last reported at 2014-Oct-31 23:28 UTC. Time now 2014-Nov-01 00:33 UTC.
Position N 53°35' W 000°04'.

Length 154.5 m; beam 27.6 m.

Type: Cargo ship. MMSI: 353633000.

Date/timePositionNaut miles runAvg speedWind from/ knotsBaromVisibWave heightAir tempDewpointWater temp
2014-Oct-31 23:28N 53°35' W 000°04'1 1.0
2014-Oct-31 22:34N 53°35' W 000°03'9 9.3
2014-Oct-31 21:33N 53°33' E 000°13'1111.0
2014-Oct-31 20:34N 53°33' E 000°31'1815.9
2014-Oct-31 19:26N 53°38' E 001°00'1415.9
2014-Oct-31 18:33N 53°44' E 001°21'1513.9
2014-Oct-31 17:30N 53°56' E 001°36'68 7.5
2014-Oct-31 08:30N 53°59' E 003°30'2015.1
2014-Oct-31 07:11N 54°01' E 004°04'1015.4
2014-Oct-31 06:32N 54°02' E 004°21'1515.5
2014-Oct-31 05:34N 54°02' E 004°47'1615.8
2014-Oct-31 04:33N 53°58' E 005°13'1515.5
2014-Oct-31 03:33N 53°54' E 005°39'1514.9
2014-Oct-31 02:33N 53°51' E 006°03'1414.4
2014-Oct-31 01:33N 53°39' E 006°18'1211.8
2014-Oct-31 00:33N 53°35' E 006°37'1413.8
2014-Oct-30 23:33N 53°26' E 006°54'9 9.4
2014-Oct-30 22:33N 53°20' E 007°05'3 3.2
2014-Oct-30 21:33N 53°20' E 007°11'0 0.0
2014-Oct-30 20:33N 53°20' E 007°11'0 0.0
2014-Oct-30 19:33N 53°20' E 007°11'0 0.0
2014-Oct-30 18:33N 53°20' E 007°11'0 0.0
2014-Oct-30 17:33N 53°20' E 007°11'0 0.0
2014-Oct-30 16:33N 53°20' E 007°11'0 0.0
2014-Oct-30 15:33N 53°20' E 007°11'0 0.0
2014-Oct-30 14:33N 53°20' E 007°11'0 0.0
2014-Oct-30 13:33N 53°20' E 007°11'0 0.0
2014-Oct-30 12:33N 53°20' E 007°11'0 0.0
2014-Oct-30 11:33N 53°20' E 007°11'0 0.0
2014-Oct-30 10:33N 53°20' E 007°11'0 0.0
2014-Oct-30 09:30N 53°20' E 007°11'0 0.0
2014-Oct-30 08:33N 53°20' E 007°11'0 0.0
2014-Oct-30 07:33N 53°20' E 007°11'0 0.0
2014-Oct-30 06:33N 53°20' E 007°11'0 0.0
2014-Oct-30 05:33N 53°20' E 007°11'0 0.0
2014-Oct-30 04:33N 53°20' E 007°11'0 0.0
2014-Oct-30 03:33N 53°20' E 007°11'0 0.0
2014-Oct-30 02:33N 53°20' E 007°11'0 0.0
2014-Oct-30 01:34N 53°20' E 007°11'9 8.7
2014-Oct-30 00:33N 53°24' E 006°57'1716.8
2014-Oct-29 23:33N 53°35' E 006°37'1313.3
2014-Oct-29 22:33N 53°38' E 006°15'1111.1
2014-Oct-29 21:33N 53°45' E 005°60'1414.3
2014-Oct-29 20:33N 53°53' E 005°40'1716.2
2014-Oct-29 19:32N 53°58' E 005°13'1615.9
2014-Oct-29 18:33N 54°01' E 004°47'14415.6
2014-Oct-29 09:17N 53°35' E 000°47'1216.0
2014-Oct-29 08:33N 53°32' E 000°28'1211.6
2014-Oct-29 07:33N 53°33' E 000°08'8 6.9
2014-Oct-29 06:28N 53°35' W 000°04'0 0.0
2014-Oct-29 05:31N 53°35' W 000°04'0 0.0
2014-Oct-29 04:31N 53°35' W 000°04'0 0.0
2014-Oct-29 03:31N 53°35' W 000°04'0 0.0
2014-Oct-29 02:31N 53°35' W 000°04'0 0.0
2014-Oct-29 01:31N 53°35' W 000°04'0 0.0
2014-Oct-29 00:19N 53°35' W 000°04'0 0.0
2014-Oct-28 23:31N 53°35' W 000°04'0 0.0
2014-Oct-28 22:31N 53°35' W 000°04'0 0.0
2014-Oct-28 21:31N 53°35' W 000°04'0 0.0
2014-Oct-28 20:31N 53°35' W 000°04'1 1.1
2014-Oct-28 19:33N 53°35' W 000°02'1111.0
2014-Oct-28 18:33N 53°33' E 000°16'5 5.4
2014-Oct-28 17:33N 53°33' E 000°25'5 5.3
2014-Oct-28 16:33N 53°33' E 000°34'7 6.6
2014-Oct-28 15:33N 53°35' E 000°45'1510.9
2014-Oct-28 14:12N 53°39' E 001°09'1014.6
2014-Oct-28 13:33N 53°43' E 001°23'1514.6
2014-Oct-28 12:33N 53°48' E 001°46'1714.5
2014-Oct-28 11:21N 53°51' E 002°15'1413.6
2014-Oct-28 10:20N 53°53' E 002°39'1013.0
2014-Oct-28 09:32N 53°55' E 002°56'7014.1
2014-Oct-28 04:33N 54°01' E 004°54'1615.5
2014-Oct-28 03:33N 53°57' E 005°20'1515.4
2014-Oct-28 02:33N 53°54' E 005°46'1515.3
2014-Oct-28 01:33N 53°50' E 006°11'1514.5
2014-Oct-28 00:33N 53°38' E 006°24'1312.8
2014-Oct-27 23:33N 53°32' E 006°43'1413.8
2014-Oct-27 22:33N 53°22' E 006°59'7 7.0
2014-Oct-27 21:33N 53°20' E 007°10'0 0.0
2014-Oct-27 20:33N 53°20' E 007°10'0 0.0
2014-Oct-27 19:33N 53°20' E 007°10'0 0.0
2014-Oct-27 18:33N 53°20' E 007°10'0 0.0
2014-Oct-27 17:33N 53°20' E 007°10'0 0.0
2014-Oct-27 16:33N 53°20' E 007°10'0 0.0
2014-Oct-27 15:33N 53°20' E 007°10'0 0.0
2014-Oct-27 14:33N 53°20' E 007°10'0 0.0
2014-Oct-27 13:33N 53°20' E 007°10'0 0.0
2014-Oct-27 12:33N 53°20' E 007°10'0 0.0
2014-Oct-27 11:30N 53°20' E 007°10'2 1.8
2014-Oct-27 10:33N 53°20' E 007°07'1212.4
2014-Oct-27 09:33N 53°28' E 006°51'1615.6
2014-Oct-27 08:33N 53°37' E 006°29'9 9.0
2014-Oct-27 07:33N 53°39' E 006°15'2 2.2
2014-Oct-27 06:33N 53°38' E 006°11'7 7.1
2014-Oct-27 05:33N 53°38' E 005°59'1514.9
2014-Oct-27 04:33N 53°35' E 005°35'1615.6
2014-Oct-27 03:33N 53°30' E 005°10'1615.6
2014-Oct-27 02:33N 53°25' E 004°45'1615.6
2014-Oct-27 01:33N 53°11' E 004°32'1615.7
2014-Oct-27 00:33N 52°58' E 004°19'1615.6
2014-Oct-26 23:33N 52°44' E 004°05'1615.5
2014-Oct-26 22:33N 52°33' E 003°47'1515.3
2014-Oct-26 21:33N 52°22' E 003°30'1615.4
2014-Oct-26 20:32N 52°11' E 003°12'1514.9
2014-Oct-26 19:33N 52°00' E 002°56'1413.1
2014-Oct-26 18:30N 51°51' E 002°40'1515.0
2014-Oct-26 17:31N 51°48' E 002°16'1617.2
2014-Oct-26 16:34N 51°38' E 001°55'1717.0
2014-Oct-26 15:34N 51°27' E 001°33'1312.8
2014-Oct-26 14:34N 51°29' E 001°13'1414.2
2014-Oct-26 13:34N 51°28' E 000°50'4 4.1
2014-Oct-26 12:31N 51°26' E 000°44'0 0.0
2014-Oct-26 11:31N 51°26' E 000°44'0 0.0
2014-Oct-26 10:28N 51°26' E 000°44'0 0.0
2014-Oct-26 09:31N 51°26' E 000°44'0 0.0
2014-Oct-26 08:31N 51°26' E 000°44'0 0.0
2014-Oct-26 07:31N 51°26' E 000°44'0 0.0
2014-Oct-26 06:31N 51°26' E 000°44'0 0.0
2014-Oct-26 05:31N 51°26' E 000°44'0 0.0
2014-Oct-26 04:31N 51°26' E 000°44'0 0.0
2014-Oct-26 03:31N 51°26' E 000°44'0 0.0
2014-Oct-26 02:31N 51°26' E 000°44'0 0.0
2014-Oct-26 01:31N 51°26' E 000°44'0 0.0
2014-Oct-26 00:31N 51°26' E 000°44'0 0.0
2014-Oct-25 23:31N 51°26' E 000°44'0 0.0
2014-Oct-25 22:31N 51°26' E 000°44'1 1.0
2014-Oct-25 21:34N 51°27' E 000°45'1313.4
2014-Oct-25 20:33N 51°30' E 001°06'1212.1
2014-Oct-25 19:33N 51°28' E 001°26'7 6.8
2014-Oct-25 18:33N 51°29' E 001°36'1312.9
2014-Oct-25 17:34N 51°36' E 001°53'1514.8
2014-Oct-25 16:32N 51°46' E 002°13'13314.8
2014-Oct-25 07:33N 53°26' E 004°36'1313.3
2014-Oct-25 06:33N 53°32' E 004°55'1313.3
2014-Oct-25 05:33N 53°36' E 005°16'1413.9
2014-Oct-25 04:33N 53°41' E 005°39'1515.0
2014-Oct-25 03:33N 53°45' E 006°03'1212.0
2014-Oct-25 02:33N 53°38' E 006°19'1313.3
2014-Oct-25 01:34N 53°34' E 006°40'1615.9
2014-Oct-25 00:33N 53°22' E 006°59'8 7.6
2014-Oct-24 23:33N 53°20' E 007°11'1 0.5
2014-Oct-24 22:33N 53°20' E 007°12'0 0.3
2014-Oct-24 21:32N 53°21' E 007°12'0 0.0
2014-Oct-24 20:32N 53°21' E 007°12'0 0.0
2014-Oct-24 19:32N 53°21' E 007°12'0 0.0
2014-Oct-24 18:32N 53°21' E 007°12'0 0.0
2014-Oct-24 17:32N 53°21' E 007°12'0 0.0
2014-Oct-24 16:32N 53°21' E 007°12'0 0.0
2014-Oct-24 15:32N 53°21' E 007°12'0 0.0
2014-Oct-24 14:32N 53°21' E 007°12'0 0.0
2014-Oct-24 13:32N 53°21' E 007°12'0 0.0
2014-Oct-24 12:32N 53°21' E 007°12'0 0.0
2014-Oct-24 11:32N 53°21' E 007°12'0 0.5
2014-Oct-24 10:33N 53°20' E 007°11'4 3.9
2014-Oct-24 09:33N 53°20' E 007°05'1110.8
2014-Oct-24 08:33N 53°27' E 006°52'1616.4
2014-Oct-24 07:33N 53°37' E 006°29'1312.8
2014-Oct-24 06:34N 53°39' E 006°08'1413.4
2014-Oct-24 05:33N 53°50' E 005°55'1615.9
2014-Oct-24 04:33N 53°56' E 005°30'1716.8
2014-Oct-24 03:33N 53°59' E 005°02'1616.4
2014-Oct-24 02:33N 53°59' E 004°34'14616.3
2014-Oct-23 17:33N 53°32' E 000°31'1313.2
2014-Oct-23 16:33N 53°33' E 000°09'8 8.0
2014-Oct-23 15:33N 53°35' W 000°04'0 0.0
2014-Oct-23 14:31N 53°35' W 000°04'0 0.0
2014-Oct-23 13:28N 53°35' W 000°04'0 0.0
2014-Oct-23 12:28N 53°35' W 000°04'0 0.0
2014-Oct-23 11:31N 53°35' W 000°04'0 0.0
2014-Oct-23 10:31N 53°35' W 000°04'0 0.0
2014-Oct-23 09:31N 53°35' W 000°04'0 0.0
2014-Oct-23 08:31N 53°35' W 000°04'0 0.0
2014-Oct-23 07:31N 53°35' W 000°04'0 0.0
2014-Oct-23 06:31N 53°35' W 000°04'0 0.0
2014-Oct-23 05:31N 53°35' W 000°04'2 1.7
2014-Oct-23 04:33N 53°35' W 000°01'1110.6
2014-Oct-23 03:33N 53°33' E 000°16'4 4.4
2014-Oct-23 02:34N 53°33' E 000°23'8 8.4
2014-Oct-23 01:33N 53°32' E 000°38'1 1.0
2014-Oct-23 00:34N 53°33' E 000°37'7 6.7
2014-Oct-22 23:31N 53°31' E 000°48'0 0.3
2014-Oct-22 22:32N 53°31' E 000°49'8 8.6
2014-Oct-22 21:33N 53°33' E 000°35'10 9.0
2014-Oct-22 20:27N 53°31' E 000°51'2511.7
2014-Oct-22 18:21N 53°13' E 001°19'911.5
2014-Oct-22 17:33N 53°11' E 001°34'1212.4
2014-Oct-22 16:33N 53°06' E 001°53'1514.5
2014-Oct-22 15:31N 52°58' E 002°14'2114.2
2014-Oct-22 14:03N 52°37' E 002°19'815.7
2014-Oct-22 13:33N 52°29' E 002°18'4613.6
2014-Oct-22 10:08N 51°44' E 002°34'813.9
2014-Oct-22 09:33N 51°38' E 002°26'1313.3
2014-Oct-22 08:33N 51°27' E 002°13'1312.6
2014-Oct-22 07:33N 51°16' E 002°05'1211.7
2014-Oct-22 06:33N 51°08' E 001°51'1211.5
2014-Oct-22 05:33N 51°00' E 001°37'1110.7
2014-Oct-22 04:33N 50°52' E 001°27'1111.3
2014-Oct-22 03:33N 50°42' E 001°19'  
Track history (hours):
 
Tides and Currents Weather Stations Pressure Air Temp Water Temp Dewpoint Dewpoint Depression Visibility Wind Speed Wind Dir Waves Ship Positions

African Highway

Last reported at 2014-Oct-31 23:28 UTC. Time now 2014-Nov-01 00:33 UTC.
Position N 53°35' W 000°04'.

Length 154.5 m; beam 27.6 m.

Type: Cargo ship. MMSI: 353633000.

Date/timePositionNaut miles runAvg speedWind from/ knotsBaromVisibWave heightAir tempDewpointWater temp
2014-Oct-31 23:28N 53°35' W 000°04'1 1.0
2014-Oct-31 22:34N 53°35' W 000°03'9 9.3
2014-Oct-31 21:33N 53°33' E 000°13'1111.0
2014-Oct-31 20:34N 53°33' E 000°31'1815.9
2014-Oct-31 19:26N 53°38' E 001°00'1415.9
2014-Oct-31 18:33N 53°44' E 001°21'1513.9
2014-Oct-31 17:30N 53°56' E 001°36'68 7.5
2014-Oct-31 08:30N 53°59' E 003°30'2015.1
2014-Oct-31 07:11N 54°01' E 004°04'1015.4
2014-Oct-31 06:32N 54°02' E 004°21'1515.5
2014-Oct-31 05:34N 54°02' E 004°47'1615.8
2014-Oct-31 04:33N 53°58' E 005°13'1515.5
2014-Oct-31 03:33N 53°54' E 005°39'1514.9
2014-Oct-31 02:33N 53°51' E 006°03'1414.4
2014-Oct-31 01:33N 53°39' E 006°18'1211.8
2014-Oct-31 00:33N 53°35' E 006°37'1413.8
2014-Oct-30 23:33N 53°26' E 006°54'9 9.4
2014-Oct-30 22:33N 53°20' E 007°05'3 3.2
2014-Oct-30 21:33N 53°20' E 007°11'0 0.0
2014-Oct-30 20:33N 53°20' E 007°11'0 0.0
2014-Oct-30 19:33N 53°20' E 007°11'0 0.0
2014-Oct-30 18:33N 53°20' E 007°11'0 0.0
2014-Oct-30 17:33N 53°20' E 007°11'0 0.0
2014-Oct-30 16:33N 53°20' E 007°11'0 0.0
2014-Oct-30 15:33N 53°20' E 007°11'0 0.0
2014-Oct-30 14:33N 53°20' E 007°11'0 0.0
2014-Oct-30 13:33N 53°20' E 007°11'0 0.0
2014-Oct-30 12:33N 53°20' E 007°11'0 0.0
2014-Oct-30 11:33N 53°20' E 007°11'0 0.0
2014-Oct-30 10:33N 53°20' E 007°11'0 0.0
2014-Oct-30 09:30N 53°20' E 007°11'0 0.0
2014-Oct-30 08:33N 53°20' E 007°11'0 0.0
2014-Oct-30 07:33N 53°20' E 007°11'0 0.0
2014-Oct-30 06:33N 53°20' E 007°11'0 0.0
2014-Oct-30 05:33N 53°20' E 007°11'0 0.0
2014-Oct-30 04:33N 53°20' E 007°11'0 0.0
2014-Oct-30 03:33N 53°20' E 007°11'0 0.0
2014-Oct-30 02:33N 53°20' E 007°11'0 0.0
2014-Oct-30 01:34N 53°20' E 007°11'9 8.7
2014-Oct-30 00:33N 53°24' E 006°57'1716.8
2014-Oct-29 23:33N 53°35' E 006°37'1313.3
2014-Oct-29 22:33N 53°38' E 006°15'1111.1
2014-Oct-29 21:33N 53°45' E 005°60'1414.3
2014-Oct-29 20:33N 53°53' E 005°40'1716.2
2014-Oct-29 19:32N 53°58' E 005°13'1615.9
2014-Oct-29 18:33N 54°01' E 004°47'14415.6
2014-Oct-29 09:17N 53°35' E 000°47'1216.0
2014-Oct-29 08:33N 53°32' E 000°28'1211.6
2014-Oct-29 07:33N 53°33' E 000°08'8 6.9
2014-Oct-29 06:28N 53°35' W 000°04'0 0.0
2014-Oct-29 05:31N 53°35' W 000°04'0 0.0
2014-Oct-29 04:31N 53°35' W 000°04'0 0.0
2014-Oct-29 03:31N 53°35' W 000°04'0 0.0
2014-Oct-29 02:31N 53°35' W 000°04'0 0.0
2014-Oct-29 01:31N 53°35' W 000°04'0 0.0
2014-Oct-29 00:19N 53°35' W 000°04'0 0.0
2014-Oct-28 23:31N 53°35' W 000°04'0 0.0
2014-Oct-28 22:31N 53°35' W 000°04'0 0.0
2014-Oct-28 21:31N 53°35' W 000°04'0 0.0
2014-Oct-28 20:31N 53°35' W 000°04'1 1.1
2014-Oct-28 19:33N 53°35' W 000°02'1111.0
2014-Oct-28 18:33N 53°33' E 000°16'5 5.4
2014-Oct-28 17:33N 53°33' E 000°25'5 5.3
2014-Oct-28 16:33N 53°33' E 000°34'7 6.6
2014-Oct-28 15:33N 53°35' E 000°45'1510.9
2014-Oct-28 14:12N 53°39' E 001°09'1014.6
2014-Oct-28 13:33N 53°43' E 001°23'1514.6
2014-Oct-28 12:33N 53°48' E 001°46'1714.5
2014-Oct-28 11:21N 53°51' E 002°15'1413.6
2014-Oct-28 10:20N 53°53' E 002°39'1013.0
2014-Oct-28 09:32N 53°55' E 002°56'7014.1
2014-Oct-28 04:33N 54°01' E 004°54'1615.5
2014-Oct-28 03:33N 53°57' E 005°20'1515.4
2014-Oct-28 02:33N 53°54' E 005°46'1515.3
2014-Oct-28 01:33N 53°50' E 006°11'1514.5
2014-Oct-28 00:33N 53°38' E 006°24'1312.8
2014-Oct-27 23:33N 53°32' E 006°43'1413.8
2014-Oct-27 22:33N 53°22' E 006°59'7 7.0
2014-Oct-27 21:33N 53°20' E 007°10'0 0.0
2014-Oct-27 20:33N 53°20' E 007°10'0 0.0
2014-Oct-27 19:33N 53°20' E 007°10'0 0.0
2014-Oct-27 18:33N 53°20' E 007°10'0 0.0
2014-Oct-27 17:33N 53°20' E 007°10'0 0.0
2014-Oct-27 16:33N 53°20' E 007°10'0 0.0
2014-Oct-27 15:33N 53°20' E 007°10'0 0.0
2014-Oct-27 14:33N 53°20' E 007°10'0 0.0
2014-Oct-27 13:33N 53°20' E 007°10'0 0.0
2014-Oct-27 12:33N 53°20' E 007°10'0 0.0
2014-Oct-27 11:30N 53°20' E 007°10'2 1.8
2014-Oct-27 10:33N 53°20' E 007°07'1212.4
2014-Oct-27 09:33N 53°28' E 006°51'1615.6
2014-Oct-27 08:33N 53°37' E 006°29'9 9.0
2014-Oct-27 07:33N 53°39' E 006°15'2 2.2
2014-Oct-27 06:33N 53°38' E 006°11'7 7.1
2014-Oct-27 05:33N 53°38' E 005°59'1514.9
2014-Oct-27 04:33N 53°35' E 005°35'1615.6
2014-Oct-27 03:33N 53°30' E 005°10'1615.6
2014-Oct-27 02:33N 53°25' E 004°45'1615.6
2014-Oct-27 01:33N 53°11' E 004°32'1615.7
2014-Oct-27 00:33N 52°58' E 004°19'1615.6
2014-Oct-26 23:33N 52°44' E 004°05'1615.5
2014-Oct-26 22:33N 52°33' E 003°47'1515.3
2014-Oct-26 21:33N 52°22' E 003°30'1615.4
2014-Oct-26 20:32N 52°11' E 003°12'1514.9
2014-Oct-26 19:33N 52°00' E 002°56'1413.1
2014-Oct-26 18:30N 51°51' E 002°40'1515.0
2014-Oct-26 17:31N 51°48' E 002°16'1617.2
2014-Oct-26 16:34N 51°38' E 001°55'1717.0
2014-Oct-26 15:34N 51°27' E 001°33'1312.8
2014-Oct-26 14:34N 51°29' E 001°13'1414.2
2014-Oct-26 13:34N 51°28' E 000°50'4 4.1
2014-Oct-26 12:31N 51°26' E 000°44'0 0.0
2014-Oct-26 11:31N 51°26' E 000°44'0 0.0
2014-Oct-26 10:28N 51°26' E 000°44'0 0.0
2014-Oct-26 09:31N 51°26' E 000°44'0 0.0
2014-Oct-26 08:31N 51°26' E 000°44'0 0.0
2014-Oct-26 07:31N 51°26' E 000°44'0 0.0
2014-Oct-26 06:31N 51°26' E 000°44'0 0.0
2014-Oct-26 05:31N 51°26' E 000°44'0 0.0
2014-Oct-26 04:31N 51°26' E 000°44'0 0.0
2014-Oct-26 03:31N 51°26' E 000°44'0 0.0
2014-Oct-26 02:31N 51°26' E 000°44'0 0.0
2014-Oct-26 01:31N 51°26' E 000°44'0 0.0
2014-Oct-26 00:31N 51°26' E 000°44'0 0.0
2014-Oct-25 23:31N 51°26' E 000°44'0 0.0
2014-Oct-25 22:31N 51°26' E 000°44'1 1.0
2014-Oct-25 21:34N 51°27' E 000°45'1313.4
2014-Oct-25 20:33N 51°30' E 001°06'1212.1
2014-Oct-25 19:33N 51°28' E 001°26'7 6.8
2014-Oct-25 18:33N 51°29' E 001°36'1312.9
2014-Oct-25 17:34N 51°36' E 001°53'1514.8
2014-Oct-25 16:32N 51°46' E 002°13'13314.8
2014-Oct-25 07:33N 53°26' E 004°36'1313.3
2014-Oct-25 06:33N 53°32' E 004°55'1313.3
2014-Oct-25 05:33N 53°36' E 005°16'1413.9
2014-Oct-25 04:33N 53°41' E 005°39'1515.0
2014-Oct-25 03:33N 53°45' E 006°03'1212.0
2014-Oct-25 02:33N 53°38' E 006°19'1313.3
2014-Oct-25 01:34N 53°34' E 006°40'1615.9
2014-Oct-25 00:33N 53°22' E 006°59'8 7.6
2014-Oct-24 23:33N 53°20' E 007°11'1 0.5
2014-Oct-24 22:33N 53°20' E 007°12'0 0.3
2014-Oct-24 21:32N 53°21' E 007°12'0 0.0
2014-Oct-24 20:32N 53°21' E 007°12'0 0.0
2014-Oct-24 19:32N 53°21' E 007°12'0 0.0
2014-Oct-24 18:32N 53°21' E 007°12'0 0.0
2014-Oct-24 17:32N 53°21' E 007°12'0 0.0
2014-Oct-24 16:32N 53°21' E 007°12'0 0.0
2014-Oct-24 15:32N 53°21' E 007°12'0 0.0
2014-Oct-24 14:32N 53°21' E 007°12'0 0.0
2014-Oct-24 13:32N 53°21' E 007°12'0 0.0
2014-Oct-24 12:32N 53°21' E 007°12'0 0.0
2014-Oct-24 11:32N 53°21' E 007°12'0 0.5
2014-Oct-24 10:33N 53°20' E 007°11'4 3.9
2014-Oct-24 09:33N 53°20' E 007°05'1110.8
2014-Oct-24 08:33N 53°27' E 006°52'1616.4
2014-Oct-24 07:33N 53°37' E 006°29'1312.8
2014-Oct-24 06:34N 53°39' E 006°08'1413.4
2014-Oct-24 05:33N 53°50' E 005°55'1615.9
2014-Oct-24 04:33N 53°56' E 005°30'1716.8
2014-Oct-24 03:33N 53°59' E 005°02'1616.4
2014-Oct-24 02:33N 53°59' E 004°34'14616.3
2014-Oct-23 17:33N 53°32' E 000°31'1313.2
2014-Oct-23 16:33N 53°33' E 000°09'8 8.0
2014-Oct-23 15:33N 53°35' W 000°04'0 0.0
2014-Oct-23 14:31N 53°35' W 000°04'0 0.0
2014-Oct-23 13:28N 53°35' W 000°04'0 0.0
2014-Oct-23 12:28N 53°35' W 000°04'0 0.0
2014-Oct-23 11:31N 53°35' W 000°04'0 0.0
2014-Oct-23 10:31N 53°35' W 000°04'0 0.0
2014-Oct-23 09:31N 53°35' W 000°04'0 0.0
2014-Oct-23 08:31N 53°35' W 000°04'0 0.0
2014-Oct-23 07:31N 53°35' W 000°04'0 0.0
2014-Oct-23 06:31N 53°35' W 000°04'0 0.0
2014-Oct-23 05:31N 53°35' W 000°04'2 1.7
2014-Oct-23 04:33N 53°35' W 000°01'1110.6
2014-Oct-23 03:33N 53°33' E 000°16'4 4.4
2014-Oct-23 02:34N 53°33' E 000°23'8 8.4
2014-Oct-23 01:33N 53°32' E 000°38'1 1.0
2014-Oct-23 00:34N 53°33' E 000°37'7 6.7
2014-Oct-22 23:31N 53°31' E 000°48'0 0.3
2014-Oct-22 22:32N 53°31' E 000°49'8 8.6
2014-Oct-22 21:33N 53°33' E 000°35'10 9.0
2014-Oct-22 20:27N 53°31' E 000°51'2511.7
2014-Oct-22 18:21N 53°13' E 001°19'911.5
2014-Oct-22 17:33N 53°11' E 001°34'1212.4
2014-Oct-22 16:33N 53°06' E 001°53'1514.5
2014-Oct-22 15:31N 52°58' E 002°14'2114.2
2014-Oct-22 14:03N 52°37' E 002°19'815.7
2014-Oct-22 13:33N 52°29' E 002°18'4613.6
2014-Oct-22 10:08N 51°44' E 002°34'813.9
2014-Oct-22 09:33N 51°38' E 002°26'1313.3
2014-Oct-22 08:33N 51°27' E 002°13'1312.6
2014-Oct-22 07:33N 51°16' E 002°05'1211.7
2014-Oct-22 06:33N 51°08' E 001°51'1211.5
2014-Oct-22 05:33N 51°00' E 001°37'1110.7
2014-Oct-22 04:33N 50°52' E 001°27'1111.3
2014-Oct-22 03:33N 50°42' E 001°19'  

Dump ship's entire track history